sensor_id;sensor_type;location;lat;lon;timestamp;P1;durP1;ratioP1;P2;durP2;ratioP2
63693;SDS011;49839;51.798;10.954;2022-08-27T00:01:20;22.10;;;13.73;;
63693;SDS011;49839;51.798;10.954;2022-08-27T00:03:48;19.80;;;13.10;;
63693;SDS011;49839;51.798;10.954;2022-08-27T00:06:17;18.55;;;12.57;;
63693;SDS011;49839;51.798;10.954;2022-08-27T00:08:46;18.00;;;12.75;;
63693;SDS011;49839;51.798;10.954;2022-08-27T00:11:17;19.37;;;12.30;;
63693;SDS011;49839;51.798;10.954;2022-08-27T00:13:46;15.32;;;11.52;;
63693;SDS011;49839;51.798;10.954;2022-08-27T00:16:14;17.45;;;10.55;;
63693;SDS011;49839;51.798;10.954;2022-08-27T00:18:44;14.70;;;9.63;;
63693;SDS011;49839;51.798;10.954;2022-08-27T00:21:13;13.02;;;8.25;;
63693;SDS011;49839;51.798;10.954;2022-08-27T00:23:41;11.82;;;8.13;;
63693;SDS011;49839;51.798;10.954;2022-08-27T00:26:10;11.70;;;7.70;;
63693;SDS011;49839;51.798;10.954;2022-08-27T00:28:39;13.27;;;7.72;;
63693;SDS011;49839;51.798;10.954;2022-08-27T00:31:09;13.43;;;8.20;;
63693;SDS011;49839;51.798;10.954;2022-08-27T00:33:37;12.88;;;8.70;;
63693;SDS011;49839;51.798;10.954;2022-08-27T00:36:05;12.32;;;8.15;;
63693;SDS011;49839;51.798;10.954;2022-08-27T00:38:34;14.48;;;8.70;;
63693;SDS011;49839;51.798;10.954;2022-08-27T00:41:02;12.87;;;9.00;;
63693;SDS011;49839;51.798;10.954;2022-08-27T00:43:41;13.23;;;8.63;;
63693;SDS011;49839;51.798;10.954;2022-08-27T00:46:14;14.68;;;9.98;;
63693;SDS011;49839;51.798;10.954;2022-08-27T00:48:46;15.55;;;10.60;;
63693;SDS011;49839;51.798;10.954;2022-08-27T00:51:14;18.30;;;11.37;;
63693;SDS011;49839;51.798;10.954;2022-08-27T00:53:42;14.27;;;10.63;;
63693;SDS011;49839;51.798;10.954;2022-08-27T00:56:12;19.35;;;11.32;;
63693;SDS011;49839;51.798;10.954;2022-08-27T00:58:44;18.98;;;12.38;;
63693;SDS011;49839;51.798;10.954;2022-08-27T01:01:15;16.42;;;10.98;;
63693;SDS011;49839;51.798;10.954;2022-08-27T01:03:46;17.25;;;11.18;;
63693;SDS011;49839;51.798;10.954;2022-08-27T01:06:16;18.98;;;12.50;;
63693;SDS011;49839;51.798;10.954;2022-08-27T01:08:47;17.65;;;12.23;;
63693;SDS011;49839;51.798;10.954;2022-08-27T01:11:19;14.98;;;11.80;;
63693;SDS011;49839;51.798;10.954;2022-08-27T01:13:48;19.23;;;12.60;;
63693;SDS011;49839;51.798;10.954;2022-08-27T01:16:26;20.30;;;13.67;;
63693;SDS011;49839;51.798;10.954;2022-08-27T01:18:58;19.05;;;13.63;;
63693;SDS011;49839;51.798;10.954;2022-08-27T01:21:28;18.97;;;13.93;;
63693;SDS011;49839;51.798;10.954;2022-08-27T01:24:05;24.17;;;15.68;;
63693;SDS011;49839;51.798;10.954;2022-08-27T01:26:40;23.38;;;16.25;;
63693;SDS011;49839;51.798;10.954;2022-08-27T01:29:08;25.00;;;16.73;;
63693;SDS011;49839;51.798;10.954;2022-08-27T01:31:36;23.75;;;15.88;;
63693;SDS011;49839;51.798;10.954;2022-08-27T01:34:04;25.88;;;18.98;;
63693;SDS011;49839;51.798;10.954;2022-08-27T01:36:32;30.88;;;19.80;;
63693;SDS011;49839;51.798;10.954;2022-08-27T01:39:00;31.48;;;20.63;;
63693;SDS011;49839;51.798;10.954;2022-08-27T01:41:28;43.47;;;26.38;;
63693;SDS011;49839;51.798;10.954;2022-08-27T01:43:57;36.28;;;24.77;;
63693;SDS011;49839;51.798;10.954;2022-08-27T01:46:26;40.63;;;26.33;;
63693;SDS011;49839;51.798;10.954;2022-08-27T01:48:54;38.78;;;25.27;;
63693;SDS011;49839;51.798;10.954;2022-08-27T01:51:22;42.50;;;28.95;;
63693;SDS011;49839;51.798;10.954;2022-08-27T01:53:49;37.28;;;26.80;;
63693;SDS011;49839;51.798;10.954;2022-08-27T01:56:17;41.53;;;28.20;;
63693;SDS011;49839;51.798;10.954;2022-08-27T01:58:45;37.75;;;29.77;;
63693;SDS011;49839;51.798;10.954;2022-08-27T02:01:13;43.22;;;27.75;;
63693;SDS011;49839;51.798;10.954;2022-08-27T02:03:42;46.30;;;28.13;;
63693;SDS011;49839;51.798;10.954;2022-08-27T02:06:12;42.28;;;30.00;;
63693;SDS011;49839;51.798;10.954;2022-08-27T02:08:40;39.58;;;27.88;;
63693;SDS011;49839;51.798;10.954;2022-08-27T02:11:08;39.85;;;26.23;;
63693;SDS011;49839;51.798;10.954;2022-08-27T02:13:36;39.40;;;25.98;;
63693;SDS011;49839;51.798;10.954;2022-08-27T02:16:04;42.60;;;26.45;;
63693;SDS011;49839;51.798;10.954;2022-08-27T02:18:35;35.85;;;26.85;;
63693;SDS011;49839;51.798;10.954;2022-08-27T02:21:03;41.05;;;27.17;;
63693;SDS011;49839;51.798;10.954;2022-08-27T02:23:32;37.75;;;26.92;;
63693;SDS011;49839;51.798;10.954;2022-08-27T02:25:59;35.97;;;25.05;;
63693;SDS011;49839;51.798;10.954;2022-08-27T02:28:27;36.35;;;24.67;;
63693;SDS011;49839;51.798;10.954;2022-08-27T02:30:55;34.78;;;23.55;;
63693;SDS011;49839;51.798;10.954;2022-08-27T02:33:22;38.53;;;25.48;;
63693;SDS011;49839;51.798;10.954;2022-08-27T02:35:51;35.05;;;23.90;;
63693;SDS011;49839;51.798;10.954;2022-08-27T02:38:19;35.92;;;22.33;;
63693;SDS011;49839;51.798;10.954;2022-08-27T02:40:47;36.97;;;25.02;;
63693;SDS011;49839;51.798;10.954;2022-08-27T02:43:14;34.50;;;22.67;;
63693;SDS011;49839;51.798;10.954;2022-08-27T02:45:50;33.67;;;23.13;;
63693;SDS011;49839;51.798;10.954;2022-08-27T02:48:17;41.22;;;24.20;;
63693;SDS011;49839;51.798;10.954;2022-08-27T02:50:46;35.50;;;22.80;;
63693;SDS011;49839;51.798;10.954;2022-08-27T02:53:15;30.45;;;22.50;;
63693;SDS011;49839;51.798;10.954;2022-08-27T02:55:43;34.85;;;23.83;;
63693;SDS011;49839;51.798;10.954;2022-08-27T02:58:11;34.65;;;22.60;;
63693;SDS011;49839;51.798;10.954;2022-08-27T03:00:41;34.22;;;21.23;;
63693;SDS011;49839;51.798;10.954;2022-08-27T03:03:09;32.78;;;23.63;;
63693;SDS011;49839;51.798;10.954;2022-08-27T03:05:38;31.35;;;23.23;;
63693;SDS011;49839;51.798;10.954;2022-08-27T03:08:06;38.35;;;22.75;;
63693;SDS011;49839;51.798;10.954;2022-08-27T03:10:35;33.70;;;23.88;;
63693;SDS011;49839;51.798;10.954;2022-08-27T03:13:03;39.92;;;22.85;;
63693;SDS011;49839;51.798;10.954;2022-08-27T03:15:30;33.92;;;23.50;;
63693;SDS011;49839;51.798;10.954;2022-08-27T03:17:58;36.25;;;22.95;;
63693;SDS011;49839;51.798;10.954;2022-08-27T03:20:46;36.15;;;23.13;;
63693;SDS011;49839;51.798;10.954;2022-08-27T03:23:15;33.78;;;21.65;;
63693;SDS011;49839;51.798;10.954;2022-08-27T03:25:46;33.75;;;21.80;;
63693;SDS011;49839;51.798;10.954;2022-08-27T03:28:16;35.85;;;22.08;;
63693;SDS011;49839;51.798;10.954;2022-08-27T03:30:48;38.17;;;23.33;;
63693;SDS011;49839;51.798;10.954;2022-08-27T03:33:17;34.47;;;22.25;;
63693;SDS011;49839;51.798;10.954;2022-08-27T03:35:45;29.05;;;20.33;;
63693;SDS011;49839;51.798;10.954;2022-08-27T03:38:17;34.17;;;22.00;;
63693;SDS011;49839;51.798;10.954;2022-08-27T03:40:46;35.75;;;19.27;;
63693;SDS011;49839;51.798;10.954;2022-08-27T03:43:14;33.53;;;21.50;;
63693;SDS011;49839;51.798;10.954;2022-08-27T03:45:43;35.22;;;20.90;;
63693;SDS011;49839;51.798;10.954;2022-08-27T03:48:26;34.90;;;21.98;;
63693;SDS011;49839;51.798;10.954;2022-08-27T03:50:54;31.55;;;21.52;;
63693;SDS011;49839;51.798;10.954;2022-08-27T03:53:22;35.22;;;19.63;;
63693;SDS011;49839;51.798;10.954;2022-08-27T03:55:51;37.22;;;20.70;;
63693;SDS011;49839;51.798;10.954;2022-08-27T03:58:19;33.25;;;20.00;;
63693;SDS011;49839;51.798;10.954;2022-08-27T04:00:46;26.52;;;19.40;;
63693;SDS011;49839;51.798;10.954;2022-08-27T04:03:14;31.02;;;20.65;;
63693;SDS011;49839;51.798;10.954;2022-08-27T04:05:41;31.38;;;20.13;;
63693;SDS011;49839;51.798;10.954;2022-08-27T04:08:10;28.02;;;17.40;;
63693;SDS011;49839;51.798;10.954;2022-08-27T04:10:38;25.67;;;16.08;;
63693;SDS011;49839;51.798;10.954;2022-08-27T04:13:08;24.90;;;17.58;;
63693;SDS011;49839;51.798;10.954;2022-08-27T04:15:36;26.42;;;18.25;;
63693;SDS011;49839;51.798;10.954;2022-08-27T04:18:09;30.00;;;20.02;;
63693;SDS011;49839;51.798;10.954;2022-08-27T04:20:39;28.23;;;19.17;;
63693;SDS011;49839;51.798;10.954;2022-08-27T04:23:07;27.02;;;17.63;;
63693;SDS011;49839;51.798;10.954;2022-08-27T04:25:37;24.02;;;17.83;;
63693;SDS011;49839;51.798;10.954;2022-08-27T04:28:05;25.48;;;18.73;;
63693;SDS011;49839;51.798;10.954;2022-08-27T04:30:34;27.77;;;19.40;;
63693;SDS011;49839;51.798;10.954;2022-08-27T04:33:04;29.13;;;19.85;;
63693;SDS011;49839;51.798;10.954;2022-08-27T04:35:32;27.70;;;20.17;;
63693;SDS011;49839;51.798;10.954;2022-08-27T04:38:00;29.02;;;19.52;;
63693;SDS011;49839;51.798;10.954;2022-08-27T04:40:27;26.77;;;19.83;;
63693;SDS011;49839;51.798;10.954;2022-08-27T04:43:15;29.55;;;21.00;;
63693;SDS011;49839;51.798;10.954;2022-08-27T04:45:44;29.85;;;21.05;;
63693;SDS011;49839;51.798;10.954;2022-08-27T04:48:15;25.08;;;16.92;;
63693;SDS011;49839;51.798;10.954;2022-08-27T04:50:44;28.92;;;20.60;;
63693;SDS011;49839;51.798;10.954;2022-08-27T04:55:42;24.38;;;15.05;;
63693;SDS011;49839;51.798;10.954;2022-08-27T04:58:11;26.77;;;17.40;;
63693;SDS011;49839;51.798;10.954;2022-08-27T05:00:40;24.90;;;16.00;;
63693;SDS011;49839;51.798;10.954;2022-08-27T05:03:09;26.17;;;18.33;;
63693;SDS011;49839;51.798;10.954;2022-08-27T05:05:38;24.83;;;17.20;;
63693;SDS011;49839;51.798;10.954;2022-08-27T05:08:07;22.67;;;17.40;;
63693;SDS011;49839;51.798;10.954;2022-08-27T05:10:39;18.73;;;13.75;;
63693;SDS011;49839;51.798;10.954;2022-08-27T05:15:35;18.55;;;14.00;;
63693;SDS011;49839;51.798;10.954;2022-08-27T05:18:04;18.40;;;12.90;;
63693;SDS011;49839;51.798;10.954;2022-08-27T05:20:39;17.27;;;13.55;;
63693;SDS011;49839;51.798;10.954;2022-08-27T05:23:08;14.60;;;10.60;;
63693;SDS011;49839;51.798;10.954;2022-08-27T05:25:37;14.82;;;11.20;;
63693;SDS011;49839;51.798;10.954;2022-08-27T05:28:05;14.20;;;10.95;;
63693;SDS011;49839;51.798;10.954;2022-08-27T05:30:34;12.25;;;9.48;;
63693;SDS011;49839;51.798;10.954;2022-08-27T05:33:02;12.60;;;9.52;;
63693;SDS011;49839;51.798;10.954;2022-08-27T05:35:30;12.18;;;8.70;;
63693;SDS011;49839;51.798;10.954;2022-08-27T05:37:59;11.85;;;8.32;;
63693;SDS011;49839;51.798;10.954;2022-08-27T05:40:26;11.55;;;7.60;;
63693;SDS011;49839;51.798;10.954;2022-08-27T05:42:54;9.70;;;8.00;;
63693;SDS011;49839;51.798;10.954;2022-08-27T05:45:22;11.15;;;8.60;;
63693;SDS011;49839;51.798;10.954;2022-08-27T05:47:49;11.32;;;8.95;;
63693;SDS011;49839;51.798;10.954;2022-08-27T05:50:17;13.00;;;10.48;;
63693;SDS011;49839;51.798;10.954;2022-08-27T05:52:48;13.93;;;9.68;;
63693;SDS011;49839;51.798;10.954;2022-08-27T05:55:18;16.40;;;12.02;;
63693;SDS011;49839;51.798;10.954;2022-08-27T05:57:46;17.27;;;13.23;;
63693;SDS011;49839;51.798;10.954;2022-08-27T06:00:13;19.85;;;13.98;;
63693;SDS011;49839;51.798;10.954;2022-08-27T06:03:04;16.92;;;13.82;;
63693;SDS011;49839;51.798;10.954;2022-08-27T06:05:32;17.33;;;12.75;;
63693;SDS011;49839;51.798;10.954;2022-08-27T06:08:00;19.75;;;14.73;;
63693;SDS011;49839;51.798;10.954;2022-08-27T06:10:29;22.50;;;17.38;;
63693;SDS011;49839;51.798;10.954;2022-08-27T06:12:57;23.20;;;18.38;;
63693;SDS011;49839;51.798;10.954;2022-08-27T06:15:25;27.13;;;18.33;;
63693;SDS011;49839;51.798;10.954;2022-08-27T06:17:52;26.17;;;18.45;;
63693;SDS011;49839;51.798;10.954;2022-08-27T06:20:20;29.45;;;20.10;;
63693;SDS011;49839;51.798;10.954;2022-08-27T06:22:49;31.57;;;22.77;;
63693;SDS011;49839;51.798;10.954;2022-08-27T06:25:16;34.42;;;22.98;;
63693;SDS011;49839;51.798;10.954;2022-08-27T06:27:45;33.03;;;24.55;;
63693;SDS011;49839;51.798;10.954;2022-08-27T06:30:13;30.95;;;22.40;;
63693;SDS011;49839;51.798;10.954;2022-08-27T06:32:42;30.42;;;20.17;;
63693;SDS011;49839;51.798;10.954;2022-08-27T06:35:10;24.63;;;19.85;;
63693;SDS011;49839;51.798;10.954;2022-08-27T06:37:38;25.58;;;19.00;;
63693;SDS011;49839;51.798;10.954;2022-08-27T06:40:06;20.67;;;16.02;;
63693;SDS011;49839;51.798;10.954;2022-08-27T06:42:35;20.45;;;13.55;;
63693;SDS011;49839;51.798;10.954;2022-08-27T06:45:05;16.25;;;11.77;;
63693;SDS011;49839;51.798;10.954;2022-08-27T06:47:33;16.77;;;11.25;;
63693;SDS011;49839;51.798;10.954;2022-08-27T06:50:01;14.25;;;10.45;;
63693;SDS011;49839;51.798;10.954;2022-08-27T06:52:28;16.08;;;10.45;;
63693;SDS011;49839;51.798;10.954;2022-08-27T06:54:56;14.95;;;9.50;;
63693;SDS011;49839;51.798;10.954;2022-08-27T06:57:24;13.75;;;10.00;;
63693;SDS011;49839;51.798;10.954;2022-08-27T06:59:52;13.07;;;8.88;;
63693;SDS011;49839;51.798;10.954;2022-08-27T07:02:21;14.88;;;8.35;;
63693;SDS011;49839;51.798;10.954;2022-08-27T07:04:51;14.48;;;8.95;;
63693;SDS011;49839;51.798;10.954;2022-08-27T07:07:18;11.55;;;7.45;;
63693;SDS011;49839;51.798;10.954;2022-08-27T07:09:55;15.18;;;8.20;;
63693;SDS011;49839;51.798;10.954;2022-08-27T07:12:23;15.90;;;9.32;;
63693;SDS011;49839;51.798;10.954;2022-08-27T07:14:55;12.90;;;8.63;;
63693;SDS011;49839;51.798;10.954;2022-08-27T07:17:25;15.27;;;10.32;;
63693;SDS011;49839;51.798;10.954;2022-08-27T07:19:52;11.60;;;8.40;;
63693;SDS011;49839;51.798;10.954;2022-08-27T07:22:20;12.68;;;8.07;;
63693;SDS011;49839;51.798;10.954;2022-08-27T07:24:48;12.57;;;7.97;;
63693;SDS011;49839;51.798;10.954;2022-08-27T07:27:16;11.82;;;6.45;;
63693;SDS011;49839;51.798;10.954;2022-08-27T07:32:13;9.82;;;4.68;;
63693;SDS011;49839;51.798;10.954;2022-08-27T07:34:42;10.50;;;6.30;;
63693;SDS011;49839;51.798;10.954;2022-08-27T07:37:10;9.43;;;5.22;;
63693;SDS011;49839;51.798;10.954;2022-08-27T07:39:37;11.38;;;6.68;;
63693;SDS011;49839;51.798;10.954;2022-08-27T07:42:05;11.02;;;7.05;;
63693;SDS011;49839;51.798;10.954;2022-08-27T07:44:51;14.20;;;8.43;;
63693;SDS011;49839;51.798;10.954;2022-08-27T07:47:18;11.20;;;7.00;;
63693;SDS011;49839;51.798;10.954;2022-08-27T07:49:47;12.98;;;7.93;;
63693;SDS011;49839;51.798;10.954;2022-08-27T07:52:15;15.48;;;10.18;;
63693;SDS011;49839;51.798;10.954;2022-08-27T07:54:43;12.75;;;8.98;;
63693;SDS011;49839;51.798;10.954;2022-08-27T07:57:11;17.40;;;10.85;;
63693;SDS011;49839;51.798;10.954;2022-08-27T07:59:38;16.05;;;10.55;;
63693;SDS011;49839;51.798;10.954;2022-08-27T08:02:06;15.80;;;9.02;;
63693;SDS011;49839;51.798;10.954;2022-08-27T08:04:34;19.35;;;9.57;;
63693;SDS011;49839;51.798;10.954;2022-08-27T08:07:03;13.38;;;9.30;;
63693;SDS011;49839;51.798;10.954;2022-08-27T08:09:31;15.15;;;8.57;;
63693;SDS011;49839;51.798;10.954;2022-08-27T08:11:59;16.88;;;9.02;;
63693;SDS011;49839;51.798;10.954;2022-08-27T08:14:26;16.02;;;9.55;;
63693;SDS011;49839;51.798;10.954;2022-08-27T08:16:57;16.98;;;9.35;;
63693;SDS011;49839;51.798;10.954;2022-08-27T08:19:25;17.17;;;8.38;;
63693;SDS011;49839;51.798;10.954;2022-08-27T08:21:53;17.20;;;9.15;;
63693;SDS011;49839;51.798;10.954;2022-08-27T08:24:27;16.75;;;8.30;;
63693;SDS011;49839;51.798;10.954;2022-08-27T08:26:55;16.02;;;8.77;;
63693;SDS011;49839;51.798;10.954;2022-08-27T08:29:22;14.90;;;8.90;;
63693;SDS011;49839;51.798;10.954;2022-08-27T08:31:50;15.90;;;8.75;;
63693;SDS011;49839;51.798;10.954;2022-08-27T08:34:18;16.50;;;8.77;;
63693;SDS011;49839;51.798;10.954;2022-08-27T08:36:45;20.25;;;9.70;;
63693;SDS011;49839;51.798;10.954;2022-08-27T08:39:19;16.27;;;10.38;;
63693;SDS011;49839;51.798;10.954;2022-08-27T08:41:49;16.20;;;10.15;;
63693;SDS011;49839;51.798;10.954;2022-08-27T08:44:22;22.33;;;10.13;;
63693;SDS011;49839;51.798;10.954;2022-08-27T08:46:57;18.15;;;8.90;;
63693;SDS011;49839;51.798;10.954;2022-08-27T08:49:31;15.55;;;8.95;;
63693;SDS011;49839;51.798;10.954;2022-08-27T08:52:07;16.65;;;9.45;;
63693;SDS011;49839;51.798;10.954;2022-08-27T08:54:57;16.55;;;9.02;;
63693;SDS011;49839;51.798;10.954;2022-08-27T08:57:37;19.10;;;9.70;;
63693;SDS011;49839;51.798;10.954;2022-08-27T09:00:11;19.15;;;9.80;;
63693;SDS011;49839;51.798;10.954;2022-08-27T09:02:39;18.58;;;9.00;;
63693;SDS011;49839;51.798;10.954;2022-08-27T09:05:17;12.93;;;7.18;;
63693;SDS011;49839;51.798;10.954;2022-08-27T09:07:46;15.90;;;9.15;;
63693;SDS011;49839;51.798;10.954;2022-08-27T09:10:36;18.23;;;9.90;;
63693;SDS011;49839;51.798;10.954;2022-08-27T09:13:13;15.40;;;9.63;;
63693;SDS011;49839;51.798;10.954;2022-08-27T09:15:46;21.75;;;10.13;;
63693;SDS011;49839;51.798;10.954;2022-08-27T09:18:15;19.73;;;9.95;;
63693;SDS011;49839;51.798;10.954;2022-08-27T09:20:44;17.52;;;9.20;;
63693;SDS011;49839;51.798;10.954;2022-08-27T09:23:17;20.38;;;9.57;;
63693;SDS011;49839;51.798;10.954;2022-08-27T09:25:49;18.27;;;9.10;;
63693;SDS011;49839;51.798;10.954;2022-08-27T09:28:20;15.57;;;8.88;;
63693;SDS011;49839;51.798;10.954;2022-08-27T09:31:08;17.58;;;8.07;;
63693;SDS011;49839;51.798;10.954;2022-08-27T09:33:39;16.50;;;8.73;;
63693;SDS011;49839;51.798;10.954;2022-08-27T09:36:22;19.42;;;9.68;;
63693;SDS011;49839;51.798;10.954;2022-08-27T09:38:51;14.10;;;8.40;;
63693;SDS011;49839;51.798;10.954;2022-08-27T09:41:24;13.85;;;8.25;;
63693;SDS011;49839;51.798;10.954;2022-08-27T09:43:59;15.27;;;8.25;;
63693;SDS011;49839;51.798;10.954;2022-08-27T09:46:28;18.63;;;8.82;;
63693;SDS011;49839;51.798;10.954;2022-08-27T09:48:56;18.35;;;9.13;;
63693;SDS011;49839;51.798;10.954;2022-08-27T09:51:24;13.80;;;8.00;;
63693;SDS011;49839;51.798;10.954;2022-08-27T09:53:56;19.17;;;8.48;;
63693;SDS011;49839;51.798;10.954;2022-08-27T09:56:27;18.98;;;8.30;;
63693;SDS011;49839;51.798;10.954;2022-08-27T09:59:01;14.98;;;8.35;;
63693;SDS011;49839;51.798;10.954;2022-08-27T10:01:32;18.33;;;7.75;;
63693;SDS011;49839;51.798;10.954;2022-08-27T10:04:05;14.27;;;6.80;;
63693;SDS011;49839;51.798;10.954;2022-08-27T10:06:36;14.30;;;5.88;;
63693;SDS011;49839;51.798;10.954;2022-08-27T10:09:07;12.13;;;7.03;;
63693;SDS011;49839;51.798;10.954;2022-08-27T10:11:39;13.85;;;6.82;;
63693;SDS011;49839;51.798;10.954;2022-08-27T10:14:17;13.10;;;7.18;;
63693;SDS011;49839;51.798;10.954;2022-08-27T10:16:51;16.42;;;7.15;;
63693;SDS011;49839;51.798;10.954;2022-08-27T10:19:37;16.27;;;7.57;;
63693;SDS011;49839;51.798;10.954;2022-08-27T10:22:15;14.63;;;7.43;;
63693;SDS011;49839;51.798;10.954;2022-08-27T10:25:01;13.35;;;7.22;;
63693;SDS011;49839;51.798;10.954;2022-08-27T10:27:39;12.98;;;6.15;;
63693;SDS011;49839;51.798;10.954;2022-08-27T10:30:17;13.10;;;5.93;;
63693;SDS011;49839;51.798;10.954;2022-08-27T10:32:50;11.07;;;5.05;;
63693;SDS011;49839;51.798;10.954;2022-08-27T10:35:31;11.38;;;4.45;;
63693;SDS011;49839;51.798;10.954;2022-08-27T10:38:06;8.18;;;4.13;;
63693;SDS011;49839;51.798;10.954;2022-08-27T10:40:41;10.05;;;3.97;;
63693;SDS011;49839;51.798;10.954;2022-08-27T10:43:20;10.02;;;4.90;;
63693;SDS011;49839;51.798;10.954;2022-08-27T10:46:20;8.63;;;4.63;;
63693;SDS011;49839;51.798;10.954;2022-08-27T10:49:02;7.45;;;3.42;;
63693;SDS011;49839;51.798;10.954;2022-08-27T10:51:42;7.57;;;3.45;;
63693;SDS011;49839;51.798;10.954;2022-08-27T10:54:19;8.75;;;3.97;;
63693;SDS011;49839;51.798;10.954;2022-08-27T10:56:53;8.07;;;4.60;;
63693;SDS011;49839;51.798;10.954;2022-08-27T10:59:47;9.82;;;5.95;;
63693;SDS011;49839;51.798;10.954;2022-08-27T11:02:24;18.95;;;8.20;;
63693;SDS011;49839;51.798;10.954;2022-08-27T11:05:02;13.60;;;7.20;;
63693;SDS011;49839;51.798;10.954;2022-08-27T11:07:37;13.48;;;6.85;;
63693;SDS011;49839;51.798;10.954;2022-08-27T11:10:09;14.93;;;6.30;;
63693;SDS011;49839;51.798;10.954;2022-08-27T11:12:47;17.25;;;7.18;;
63693;SDS011;49839;51.798;10.954;2022-08-27T11:15:18;13.65;;;6.63;;
63693;SDS011;49839;51.798;10.954;2022-08-27T11:17:51;13.23;;;6.40;;
63693;SDS011;49839;51.798;10.954;2022-08-27T11:20:24;12.85;;;7.90;;
63693;SDS011;49839;51.798;10.954;2022-08-27T11:22:56;14.25;;;8.13;;
63693;SDS011;49839;51.798;10.954;2022-08-27T11:25:32;15.57;;;8.65;;
63693;SDS011;49839;51.798;10.954;2022-08-27T11:28:07;16.33;;;8.35;;
63693;SDS011;49839;51.798;10.954;2022-08-27T11:30:39;17.10;;;9.30;;
63693;SDS011;49839;51.798;10.954;2022-08-27T11:33:21;19.80;;;9.00;;
63693;SDS011;49839;51.798;10.954;2022-08-27T11:36:02;14.23;;;7.90;;
63693;SDS011;49839;51.798;10.954;2022-08-27T11:38:50;15.48;;;7.93;;
63693;SDS011;49839;51.798;10.954;2022-08-27T11:41:26;14.68;;;7.47;;
63693;SDS011;49839;51.798;10.954;2022-08-27T11:46:41;18.40;;;7.80;;
63693;SDS011;49839;51.798;10.954;2022-08-27T11:49:19;15.40;;;7.78;;
63693;SDS011;49839;51.798;10.954;2022-08-27T11:51:55;14.50;;;7.60;;
63693;SDS011;49839;51.798;10.954;2022-08-27T11:54:26;11.73;;;5.57;;
63693;SDS011;49839;51.798;10.954;2022-08-27T11:56:56;18.08;;;8.27;;
63693;SDS011;49839;51.798;10.954;2022-08-27T11:59:29;16.40;;;8.02;;
63693;SDS011;49839;51.798;10.954;2022-08-27T12:02:09;15.60;;;7.80;;
63693;SDS011;49839;51.798;10.954;2022-08-27T12:04:40;14.98;;;8.02;;
63693;SDS011;49839;51.798;10.954;2022-08-27T12:07:20;15.32;;;8.13;;
63693;SDS011;49839;51.798;10.954;2022-08-27T12:10:11;13.90;;;7.75;;
63693;SDS011;49839;51.798;10.954;2022-08-27T12:12:57;15.80;;;8.43;;
63693;SDS011;49839;51.798;10.954;2022-08-27T12:15:41;15.93;;;8.45;;
63693;SDS011;49839;51.798;10.954;2022-08-27T12:18:22;15.23;;;7.90;;
63693;SDS011;49839;51.798;10.954;2022-08-27T12:21:10;16.27;;;8.07;;
63693;SDS011;49839;51.798;10.954;2022-08-27T12:23:49;14.32;;;8.35;;
63693;SDS011;49839;51.798;10.954;2022-08-27T12:26:31;15.93;;;8.00;;
63693;SDS011;49839;51.798;10.954;2022-08-27T12:29:18;13.80;;;7.55;;
63693;SDS011;49839;51.798;10.954;2022-08-27T12:31:54;10.55;;;5.13;;
63693;SDS011;49839;51.798;10.954;2022-08-27T12:34:26;14.38;;;6.75;;
63693;SDS011;49839;51.798;10.954;2022-08-27T12:36:57;15.02;;;7.80;;
63693;SDS011;49839;51.798;10.954;2022-08-27T12:39:26;8.75;;;4.93;;
63693;SDS011;49839;51.798;10.954;2022-08-27T12:41:56;16.45;;;8.02;;
63693;SDS011;49839;51.798;10.954;2022-08-27T12:44:26;15.07;;;7.65;;
63693;SDS011;49839;51.798;10.954;2022-08-27T12:46:56;13.45;;;7.82;;
63693;SDS011;49839;51.798;10.954;2022-08-27T12:49:30;16.95;;;7.97;;
63693;SDS011;49839;51.798;10.954;2022-08-27T12:52:11;15.75;;;8.43;;
63693;SDS011;49839;51.798;10.954;2022-08-27T12:54:46;14.90;;;8.73;;
63693;SDS011;49839;51.798;10.954;2022-08-27T12:57:25;14.35;;;7.95;;
63693;SDS011;49839;51.798;10.954;2022-08-27T13:00:04;14.85;;;8.93;;
63693;SDS011;49839;51.798;10.954;2022-08-27T13:02:56;15.23;;;8.52;;
63693;SDS011;49839;51.798;10.954;2022-08-27T13:05:35;12.48;;;8.00;;
63693;SDS011;49839;51.798;10.954;2022-08-27T13:08:15;15.82;;;10.02;;
63693;SDS011;49839;51.798;10.954;2022-08-27T13:13:13;15.55;;;8.45;;
63693;SDS011;49839;51.798;10.954;2022-08-27T13:15:43;14.75;;;7.78;;
63693;SDS011;49839;51.798;10.954;2022-08-27T13:18:14;17.63;;;10.70;;
63693;SDS011;49839;51.798;10.954;2022-08-27T13:20:42;18.30;;;9.77;;
63693;SDS011;49839;51.798;10.954;2022-08-27T13:23:19;15.13;;;8.52;;
63693;SDS011;49839;51.798;10.954;2022-08-27T13:25:56;17.60;;;10.15;;
63693;SDS011;49839;51.798;10.954;2022-08-27T13:28:29;13.63;;;8.32;;
63693;SDS011;49839;51.798;10.954;2022-08-27T13:30:58;14.43;;;8.35;;
63693;SDS011;49839;51.798;10.954;2022-08-27T13:33:27;11.40;;;7.57;;
63693;SDS011;49839;51.798;10.954;2022-08-27T13:35:57;15.48;;;6.72;;
63693;SDS011;49839;51.798;10.954;2022-08-27T13:38:28;10.73;;;7.15;;
63693;SDS011;49839;51.798;10.954;2022-08-27T13:40:59;14.85;;;7.03;;
63693;SDS011;49839;51.798;10.954;2022-08-27T13:43:32;10.80;;;6.35;;
63693;SDS011;49839;51.798;10.954;2022-08-27T13:46:03;10.90;;;6.88;;
63693;SDS011;49839;51.798;10.954;2022-08-27T13:48:33;10.85;;;6.60;;
63693;SDS011;49839;51.798;10.954;2022-08-27T13:51:05;9.88;;;5.63;;
63693;SDS011;49839;51.798;10.954;2022-08-27T13:53:35;11.97;;;6.40;;
63693;SDS011;49839;51.798;10.954;2022-08-27T13:56:26;14.25;;;6.35;;
63693;SDS011;49839;51.798;10.954;2022-08-27T13:59:05;10.85;;;4.90;;
63693;SDS011;49839;51.798;10.954;2022-08-27T14:01:34;13.82;;;5.15;;
63693;SDS011;49839;51.798;10.954;2022-08-27T14:04:03;12.48;;;6.43;;
63693;SDS011;49839;51.798;10.954;2022-08-27T14:06:40;12.02;;;5.93;;
63693;SDS011;49839;51.798;10.954;2022-08-27T14:09:13;11.82;;;5.78;;
63693;SDS011;49839;51.798;10.954;2022-08-27T14:11:43;14.50;;;6.18;;
63693;SDS011;49839;51.798;10.954;2022-08-27T14:14:12;15.75;;;5.90;;
63693;SDS011;49839;51.798;10.954;2022-08-27T14:16:42;9.00;;;4.93;;
63693;SDS011;49839;51.798;10.954;2022-08-27T14:19:11;12.25;;;5.10;;
63693;SDS011;49839;51.798;10.954;2022-08-27T14:21:50;13.85;;;5.78;;
63693;SDS011;49839;51.798;10.954;2022-08-27T14:24:18;10.80;;;4.88;;
63693;SDS011;49839;51.798;10.954;2022-08-27T14:26:47;9.93;;;4.53;;
63693;SDS011;49839;51.798;10.954;2022-08-27T14:29:15;14.40;;;5.40;;
63693;SDS011;49839;51.798;10.954;2022-08-27T14:31:43;14.77;;;5.07;;
63693;SDS011;49839;51.798;10.954;2022-08-27T14:34:11;13.68;;;5.28;;
63693;SDS011;49839;51.798;10.954;2022-08-27T14:36:40;9.38;;;4.95;;
63693;SDS011;49839;51.798;10.954;2022-08-27T14:41:39;10.50;;;5.07;;
63693;SDS011;49839;51.798;10.954;2022-08-27T14:44:07;13.55;;;4.43;;
63693;SDS011;49839;51.798;10.954;2022-08-27T14:46:34;13.77;;;4.38;;
63693;SDS011;49839;51.798;10.954;2022-08-27T14:49:08;11.35;;;4.30;;
63693;SDS011;49839;51.798;10.954;2022-08-27T14:51:40;12.73;;;4.05;;
63693;SDS011;49839;51.798;10.954;2022-08-27T14:54:09;12.23;;;4.20;;
63693;SDS011;49839;51.798;10.954;2022-08-27T14:56:36;9.85;;;4.00;;